sensor_id;sensor_type;location;lat;lon;timestamp;P1;durP1;ratioP1;P2;durP2;ratioP2
44588;SDS011;30298;52.562;13.414;2023-03-04T00:02:15;50.07;;;19.17;;
44588;SDS011;30298;52.562;13.414;2023-03-04T00:04:41;36.17;;;16.13;;
44588;SDS011;30298;52.562;13.414;2023-03-04T00:07:06;48.57;;;20.20;;
44588;SDS011;30298;52.562;13.414;2023-03-04T00:09:52;46.47;;;18.85;;
44588;SDS011;30298;52.562;13.414;2023-03-04T00:12:17;19.05;;;9.38;;
44588;SDS011;30298;52.562;13.414;2023-03-04T00:14:42;31.90;;;14.30;;
44588;SDS011;30298;52.562;13.414;2023-03-04T00:17:07;46.73;;;18.80;;
44588;SDS011;30298;52.562;13.414;2023-03-04T00:19:33;32.60;;;15.57;;
44588;SDS011;30298;52.562;13.414;2023-03-04T00:21:59;39.15;;;16.27;;
44588;SDS011;30298;52.562;13.414;2023-03-04T00:24:24;41.03;;;15.73;;
44588;SDS011;30298;52.562;13.414;2023-03-04T00:26:50;33.17;;;14.50;;
44588;SDS011;30298;52.562;13.414;2023-03-04T00:29:15;44.57;;;16.23;;
44588;SDS011;30298;52.562;13.414;2023-03-04T00:31:40;29.53;;;13.07;;
44588;SDS011;30298;52.562;13.414;2023-03-04T00:34:06;40.07;;;14.90;;
44588;SDS011;30298;52.562;13.414;2023-03-04T00:36:31;38.63;;;14.50;;
44588;SDS011;30298;52.562;13.414;2023-03-04T00:38:56;36.47;;;15.57;;
44588;SDS011;30298;52.562;13.414;2023-03-04T00:41:22;35.03;;;14.23;;
44588;SDS011;30298;52.562;13.414;2023-03-04T00:43:47;32.33;;;11.43;;
44588;SDS011;30298;52.562;13.414;2023-03-04T00:46:15;31.17;;;13.43;;
44588;SDS011;30298;52.562;13.414;2023-03-04T00:48:40;28.02;;;11.82;;
44588;SDS011;30298;52.562;13.414;2023-03-04T00:51:05;23.07;;;9.90;;
44588;SDS011;30298;52.562;13.414;2023-03-04T00:53:31;33.47;;;12.63;;
44588;SDS011;30298;52.562;13.414;2023-03-04T00:55:56;32.13;;;13.53;;
44588;SDS011;30298;52.562;13.414;2023-03-04T00:58:21;32.10;;;14.40;;
44588;SDS011;30298;52.562;13.414;2023-03-04T01:00:47;35.73;;;12.37;;
44588;SDS011;30298;52.562;13.414;2023-03-04T01:03:12;36.07;;;13.13;;
44588;SDS011;30298;52.562;13.414;2023-03-04T01:05:37;27.13;;;12.30;;
44588;SDS011;30298;52.562;13.414;2023-03-04T01:08:03;28.33;;;11.70;;
44588;SDS011;30298;52.562;13.414;2023-03-04T01:10:29;22.58;;;9.52;;
44588;SDS011;30298;52.562;13.414;2023-03-04T01:12:54;23.13;;;9.75;;
44588;SDS011;30298;52.562;13.414;2023-03-04T01:15:20;34.47;;;12.43;;
44588;SDS011;30298;52.562;13.414;2023-03-04T01:17:45;24.90;;;9.70;;
44588;SDS011;30298;52.562;13.414;2023-03-04T01:20:11;31.13;;;11.70;;
44588;SDS011;30298;52.562;13.414;2023-03-04T01:22:36;21.88;;;8.48;;
44588;SDS011;30298;52.562;13.414;2023-03-04T01:25:01;24.23;;;8.87;;
44588;SDS011;30298;52.562;13.414;2023-03-04T01:27:27;30.70;;;11.10;;
44588;SDS011;30298;52.562;13.414;2023-03-04T01:29:52;32.23;;;10.70;;
44588;SDS011;30298;52.562;13.414;2023-03-04T01:32:17;24.23;;;9.63;;
44588;SDS011;30298;52.562;13.414;2023-03-04T01:34:42;32.00;;;12.23;;
44588;SDS011;30298;52.562;13.414;2023-03-04T01:37:08;21.33;;;8.20;;
44588;SDS011;30298;52.562;13.414;2023-03-04T01:39:34;22.08;;;9.63;;
44588;SDS011;30298;52.562;13.414;2023-03-04T01:41:59;27.93;;;9.47;;
44588;SDS011;30298;52.562;13.414;2023-03-04T01:44:24;14.93;;;7.53;;
44588;SDS011;30298;52.562;13.414;2023-03-04T01:46:50;24.03;;;8.37;;
44588;SDS011;30298;52.562;13.414;2023-03-04T01:51:42;17.25;;;8.20;;
44588;SDS011;30298;52.562;13.414;2023-03-04T01:54:08;22.42;;;8.88;;
44588;SDS011;30298;52.562;13.414;2023-03-04T01:56:35;25.20;;;8.00;;
44588;SDS011;30298;52.562;13.414;2023-03-04T02:01:35;16.92;;;7.53;;
44588;SDS011;30298;52.562;13.414;2023-03-04T02:04:00;19.45;;;6.72;;
44588;SDS011;30298;52.562;13.414;2023-03-04T02:06:26;25.52;;;7.32;;
44588;SDS011;30298;52.562;13.414;2023-03-04T02:08:51;22.83;;;8.83;;
44588;SDS011;30298;52.562;13.414;2023-03-04T02:11:17;15.13;;;7.03;;
44588;SDS011;30298;52.562;13.414;2023-03-04T02:13:42;19.73;;;7.03;;
44588;SDS011;30298;52.562;13.414;2023-03-04T02:16:07;33.43;;;8.07;;
44588;SDS011;30298;52.562;13.414;2023-03-04T02:18:33;23.67;;;8.48;;
44588;SDS011;30298;52.562;13.414;2023-03-04T02:28:35;17.15;;;7.13;;
44588;SDS011;30298;52.562;13.414;2023-03-04T02:31:00;32.47;;;5.47;;
44588;SDS011;30298;52.562;13.414;2023-03-04T02:33:26;17.87;;;7.50;;
44588;SDS011;30298;52.562;13.414;2023-03-04T02:35:51;20.23;;;6.40;;
44588;SDS011;30298;52.562;13.414;2023-03-04T02:38:16;22.00;;;6.27;;
44588;SDS011;30298;52.562;13.414;2023-03-04T02:40:42;22.30;;;7.13;;
44588;SDS011;30298;52.562;13.414;2023-03-04T02:43:10;14.68;;;6.80;;
44588;SDS011;30298;52.562;13.414;2023-03-04T02:45:40;18.33;;;6.20;;
44588;SDS011;30298;52.562;13.414;2023-03-04T02:48:06;24.85;;;7.57;;
44588;SDS011;30298;52.562;13.414;2023-03-04T02:50:42;22.98;;;7.10;;
44588;SDS011;30298;52.562;13.414;2023-03-04T02:53:08;21.25;;;7.78;;
44588;SDS011;30298;52.562;13.414;2023-03-04T02:55:33;27.33;;;7.43;;
44588;SDS011;30298;52.562;13.414;2023-03-04T02:57:58;18.93;;;6.53;;
44588;SDS011;30298;52.562;13.414;2023-03-04T03:00:24;25.53;;;6.40;;
44588;SDS011;30298;52.562;13.414;2023-03-04T03:02:49;18.90;;;6.53;;
44588;SDS011;30298;52.562;13.414;2023-03-04T03:05:14;12.23;;;4.53;;
44588;SDS011;30298;52.562;13.414;2023-03-04T03:07:40;9.50;;;4.18;;
44588;SDS011;30298;52.562;13.414;2023-03-04T03:10:06;16.93;;;6.23;;
44588;SDS011;30298;52.562;13.414;2023-03-04T03:12:31;20.13;;;5.60;;
44588;SDS011;30298;52.562;13.414;2023-03-04T03:14:56;17.90;;;5.47;;
44588;SDS011;30298;52.562;13.414;2023-03-04T03:17:22;18.58;;;5.88;;
44588;SDS011;30298;52.562;13.414;2023-03-04T03:19:47;18.47;;;6.37;;
44588;SDS011;30298;52.562;13.414;2023-03-04T03:22:13;15.87;;;6.13;;
44588;SDS011;30298;52.562;13.414;2023-03-04T03:24:38;14.87;;;6.63;;
44588;SDS011;30298;52.562;13.414;2023-03-04T03:27:04;18.83;;;6.67;;
44588;SDS011;30298;52.562;13.414;2023-03-04T03:29:29;15.23;;;6.07;;
44588;SDS011;30298;52.562;13.414;2023-03-04T03:31:54;15.77;;;6.17;;
44588;SDS011;30298;52.562;13.414;2023-03-04T03:34:21;20.38;;;6.63;;
44588;SDS011;30298;52.562;13.414;2023-03-04T03:36:46;21.17;;;7.20;;
44588;SDS011;30298;52.562;13.414;2023-03-04T03:39:12;14.43;;;5.82;;
44588;SDS011;30298;52.562;13.414;2023-03-04T03:41:39;13.07;;;5.70;;
44588;SDS011;30298;52.562;13.414;2023-03-04T03:44:04;14.50;;;6.50;;
44588;SDS011;30298;52.562;13.414;2023-03-04T03:46:30;21.53;;;6.63;;
44588;SDS011;30298;52.562;13.414;2023-03-04T03:48:55;21.73;;;6.33;;
44588;SDS011;30298;52.562;13.414;2023-03-04T03:51:20;17.23;;;5.63;;
44588;SDS011;30298;52.562;13.414;2023-03-04T03:53:46;15.80;;;5.80;;
44588;SDS011;30298;52.562;13.414;2023-03-04T03:56:11;20.83;;;6.23;;
44588;SDS011;30298;52.562;13.414;2023-03-04T03:58:36;16.20;;;5.97;;
44588;SDS011;30298;52.562;13.414;2023-03-04T04:01:02;20.53;;;7.47;;
44588;SDS011;30298;52.562;13.414;2023-03-04T04:03:27;18.50;;;6.27;;
44588;SDS011;30298;52.562;13.414;2023-03-04T04:05:53;25.95;;;6.45;;
44588;SDS011;30298;52.562;13.414;2023-03-04T04:08:18;13.63;;;5.20;;
44588;SDS011;30298;52.562;13.414;2023-03-04T04:10:44;18.90;;;5.77;;
44588;SDS011;30298;52.562;13.414;2023-03-04T04:13:09;14.47;;;5.60;;
44588;SDS011;30298;52.562;13.414;2023-03-04T04:15:35;17.15;;;4.85;;
44588;SDS011;30298;52.562;13.414;2023-03-04T04:18:02;17.83;;;6.38;;
44588;SDS011;30298;52.562;13.414;2023-03-04T04:20:27;30.07;;;8.47;;
44588;SDS011;30298;52.562;13.414;2023-03-04T04:22:53;15.97;;;6.33;;
44588;SDS011;30298;52.562;13.414;2023-03-04T04:25:18;18.07;;;5.27;;
44588;SDS011;30298;52.562;13.414;2023-03-04T04:27:43;19.73;;;6.80;;
44588;SDS011;30298;52.562;13.414;2023-03-04T04:30:09;15.80;;;5.07;;
44588;SDS011;30298;52.562;13.414;2023-03-04T04:32:34;19.77;;;5.82;;
44588;SDS011;30298;52.562;13.414;2023-03-04T04:35:00;16.30;;;4.50;;
44588;SDS011;30298;52.562;13.414;2023-03-04T04:37:25;16.37;;;4.83;;
44588;SDS011;30298;52.562;13.414;2023-03-04T04:39:50;8.50;;;3.93;;
44588;SDS011;30298;52.562;13.414;2023-03-04T04:42:16;11.57;;;4.50;;
44588;SDS011;30298;52.562;13.414;2023-03-04T04:44:42;17.90;;;5.15;;
44588;SDS011;30298;52.562;13.414;2023-03-04T04:47:08;9.30;;;3.73;;
44588;SDS011;30298;52.562;13.414;2023-03-04T04:52:01;13.73;;;5.53;;
44588;SDS011;30298;52.562;13.414;2023-03-04T04:54:26;11.05;;;4.65;;
44588;SDS011;30298;52.562;13.414;2023-03-04T04:56:52;13.87;;;4.17;;
44588;SDS011;30298;52.562;13.414;2023-03-04T04:59:17;5.50;;;3.08;;
44588;SDS011;30298;52.562;13.414;2023-03-04T05:01:42;9.10;;;4.30;;
44588;SDS011;30298;52.562;13.414;2023-03-04T05:04:08;14.67;;;4.47;;
44588;SDS011;30298;52.562;13.414;2023-03-04T05:06:33;11.27;;;3.33;;
44588;SDS011;30298;52.562;13.414;2023-03-04T05:08:59;13.87;;;4.63;;
44588;SDS011;30298;52.562;13.414;2023-03-04T05:11:24;14.27;;;3.77;;
44588;SDS011;30298;52.562;13.414;2023-03-04T05:13:49;15.63;;;5.87;;
44588;SDS011;30298;52.562;13.414;2023-03-04T05:16:16;12.73;;;3.90;;
44588;SDS011;30298;52.562;13.414;2023-03-04T05:18:42;13.98;;;3.63;;
44588;SDS011;30298;52.562;13.414;2023-03-04T05:21:07;13.02;;;4.15;;
44588;SDS011;30298;52.562;13.414;2023-03-04T05:23:37;11.43;;;4.27;;
44588;SDS011;30298;52.562;13.414;2023-03-04T05:26:03;11.23;;;3.60;;
44588;SDS011;30298;52.562;13.414;2023-03-04T05:30:53;6.60;;;3.15;;
44588;SDS011;30298;52.562;13.414;2023-03-04T05:33:19;10.63;;;5.13;;
44588;SDS011;30298;52.562;13.414;2023-03-04T05:35:44;12.00;;;3.87;;
44588;SDS011;30298;52.562;13.414;2023-03-04T05:38:11;9.98;;;3.97;;
44588;SDS011;30298;52.562;13.414;2023-03-04T05:40:37;11.27;;;3.72;;
44588;SDS011;30298;52.562;13.414;2023-03-04T05:43:02;10.25;;;3.58;;
44588;SDS011;30298;52.562;13.414;2023-03-04T05:45:28;15.53;;;4.07;;
44588;SDS011;30298;52.562;13.414;2023-03-04T05:47:53;12.87;;;4.20;;
44588;SDS011;30298;52.562;13.414;2023-03-04T05:50:19;10.13;;;4.80;;
44588;SDS011;30298;52.562;13.414;2023-03-04T05:52:44;11.82;;;4.15;;
44588;SDS011;30298;52.562;13.414;2023-03-04T05:55:10;16.80;;;4.00;;
44588;SDS011;30298;52.562;13.414;2023-03-04T05:57:35;10.43;;;3.47;;
44588;SDS011;30298;52.562;13.414;2023-03-04T06:00:00;7.10;;;3.73;;
44588;SDS011;30298;52.562;13.414;2023-03-04T06:02:26;15.47;;;3.60;;
44588;SDS011;30298;52.562;13.414;2023-03-04T06:04:51;10.00;;;3.80;;
44588;SDS011;30298;52.562;13.414;2023-03-04T06:07:16;13.93;;;3.90;;
44588;SDS011;30298;52.562;13.414;2023-03-04T06:09:42;9.13;;;3.50;;
44588;SDS011;30298;52.562;13.414;2023-03-04T06:12:09;12.73;;;3.42;;
44588;SDS011;30298;52.562;13.414;2023-03-04T06:14:34;10.53;;;4.00;;
44588;SDS011;30298;52.562;13.414;2023-03-04T06:16:59;11.40;;;3.30;;
44588;SDS011;30298;52.562;13.414;2023-03-04T06:19:25;13.40;;;3.40;;
44588;SDS011;30298;52.562;13.414;2023-03-04T06:21:50;6.17;;;2.43;;
44588;SDS011;30298;52.562;13.414;2023-03-04T06:24:15;3.17;;;2.20;;
44588;SDS011;30298;52.562;13.414;2023-03-04T06:26:40;10.03;;;3.60;;
44588;SDS011;30298;52.562;13.414;2023-03-04T06:29:06;11.43;;;3.10;;
44588;SDS011;30298;52.562;13.414;2023-03-04T06:31:31;9.77;;;3.13;;
44588;SDS011;30298;52.562;13.414;2023-03-04T06:33:56;7.93;;;4.10;;
44588;SDS011;30298;52.562;13.414;2023-03-04T06:36:21;8.77;;;2.93;;
44588;SDS011;30298;52.562;13.414;2023-03-04T06:38:47;9.47;;;3.00;;
44588;SDS011;30298;52.562;13.414;2023-03-04T06:41:12;16.50;;;4.57;;
44588;SDS011;30298;52.562;13.414;2023-03-04T06:43:38;8.55;;;2.80;;
44588;SDS011;30298;52.562;13.414;2023-03-04T06:46:04;6.20;;;3.28;;
44588;SDS011;30298;52.562;13.414;2023-03-04T06:48:29;9.45;;;3.40;;
44588;SDS011;30298;52.562;13.414;2023-03-04T06:50:55;13.70;;;3.65;;
44588;SDS011;30298;52.562;13.414;2023-03-04T06:53:20;9.83;;;3.30;;
44588;SDS011;30298;52.562;13.414;2023-03-04T06:55:46;7.87;;;3.03;;
44588;SDS011;30298;52.562;13.414;2023-03-04T06:58:12;8.38;;;3.63;;
44588;SDS011;30298;52.562;13.414;2023-03-04T07:00:37;10.97;;;4.57;;
44588;SDS011;30298;52.562;13.414;2023-03-04T07:03:02;12.87;;;4.00;;
44588;SDS011;30298;52.562;13.414;2023-03-04T07:05:27;14.30;;;3.83;;
44588;SDS011;30298;52.562;13.414;2023-03-04T07:07:53;10.00;;;3.30;;
44588;SDS011;30298;52.562;13.414;2023-03-04T07:10:18;6.77;;;3.50;;
44588;SDS011;30298;52.562;13.414;2023-03-04T07:20:29;11.70;;;3.40;;
44588;SDS011;30298;52.562;13.414;2023-03-04T07:22:54;8.00;;;3.77;;
44588;SDS011;30298;52.562;13.414;2023-03-04T07:25:19;6.80;;;3.23;;
44588;SDS011;30298;52.562;13.414;2023-03-04T07:27:44;9.30;;;3.50;;
44588;SDS011;30298;52.562;13.414;2023-03-04T07:30:10;9.57;;;4.33;;
44588;SDS011;30298;52.562;13.414;2023-03-04T07:32:35;7.97;;;3.38;;
44588;SDS011;30298;52.562;13.414;2023-03-04T07:35:01;5.73;;;3.10;;
44588;SDS011;30298;52.562;13.414;2023-03-04T07:37:27;7.15;;;3.00;;
44588;SDS011;30298;52.562;13.414;2023-03-04T07:39:53;5.17;;;2.60;;
44588;SDS011;30298;52.562;13.414;2023-03-04T07:42:18;10.57;;;3.00;;
44588;SDS011;30298;52.562;13.414;2023-03-04T07:44:43;7.00;;;2.57;;
44588;SDS011;30298;52.562;13.414;2023-03-04T07:47:08;12.37;;;3.30;;
44588;SDS011;30298;52.562;13.414;2023-03-04T07:49:34;8.47;;;3.53;;
44588;SDS011;30298;52.562;13.414;2023-03-04T07:52:02;17.87;;;4.10;;
44588;SDS011;30298;52.562;13.414;2023-03-04T07:54:27;5.40;;;2.92;;
44588;SDS011;30298;52.562;13.414;2023-03-04T07:56:52;8.97;;;2.97;;
44588;SDS011;30298;52.562;13.414;2023-03-04T07:59:18;7.07;;;2.75;;
44588;SDS011;30298;52.562;13.414;2023-03-04T08:01:43;6.73;;;2.83;;
44588;SDS011;30298;52.562;13.414;2023-03-04T08:04:08;8.13;;;2.53;;
44588;SDS011;30298;52.562;13.414;2023-03-04T08:06:34;8.20;;;2.53;;
44588;SDS011;30298;52.562;13.414;2023-03-04T08:09:00;3.40;;;2.60;;
44588;SDS011;30298;52.562;13.414;2023-03-04T08:11:26;7.50;;;3.08;;
44588;SDS011;30298;52.562;13.414;2023-03-04T08:13:52;4.45;;;2.67;;
44588;SDS011;30298;52.562;13.414;2023-03-04T08:16:18;9.52;;;3.10;;
44588;SDS011;30298;52.562;13.414;2023-03-04T08:18:44;5.93;;;3.00;;
44588;SDS011;30298;52.562;13.414;2023-03-04T08:21:10;7.47;;;3.65;;
44588;SDS011;30298;52.562;13.414;2023-03-04T08:23:36;7.18;;;2.88;;
44588;SDS011;30298;52.562;13.414;2023-03-04T08:26:08;5.20;;;2.50;;
44588;SDS011;30298;52.562;13.414;2023-03-04T08:28:34;4.55;;;2.92;;
44588;SDS011;30298;52.562;13.414;2023-03-04T08:31:00;12.05;;;3.55;;
44588;SDS011;30298;52.562;13.414;2023-03-04T08:33:25;5.60;;;2.40;;
44588;SDS011;30298;52.562;13.414;2023-03-04T08:35:51;7.67;;;3.50;;
44588;SDS011;30298;52.562;13.414;2023-03-04T08:38:16;10.60;;;3.10;;
44588;SDS011;30298;52.562;13.414;2023-03-04T08:40:42;12.80;;;3.07;;
44588;SDS011;30298;52.562;13.414;2023-03-04T08:43:07;5.67;;;2.70;;
44588;SDS011;30298;52.562;13.414;2023-03-04T08:45:32;11.63;;;3.17;;
44588;SDS011;30298;52.562;13.414;2023-03-04T08:47:58;8.30;;;2.93;;
44588;SDS011;30298;52.562;13.414;2023-03-04T08:50:23;5.77;;;1.93;;
44588;SDS011;30298;52.562;13.414;2023-03-04T08:52:50;8.02;;;2.58;;
44588;SDS011;30298;52.562;13.414;2023-03-04T08:55:15;8.60;;;3.03;;
44588;SDS011;30298;52.562;13.414;2023-03-04T08:57:40;4.68;;;2.40;;
44588;SDS011;30298;52.562;13.414;2023-03-04T09:00:06;4.70;;;2.03;;
44588;SDS011;30298;52.562;13.414;2023-03-04T09:02:31;7.25;;;3.22;;
44588;SDS011;30298;52.562;13.414;2023-03-04T09:04:57;5.77;;;2.50;;
44588;SDS011;30298;52.562;13.414;2023-03-04T09:07:22;10.03;;;3.70;;
44588;SDS011;30298;52.562;13.414;2023-03-04T09:09:48;7.45;;;2.75;;
44588;SDS011;30298;52.562;13.414;2023-03-04T09:12:13;7.83;;;2.30;;
44588;SDS011;30298;52.562;13.414;2023-03-04T09:14:38;12.03;;;3.40;;
44588;SDS011;30298;52.562;13.414;2023-03-04T09:17:04;6.90;;;2.27;;
44588;SDS011;30298;52.562;13.414;2023-03-04T09:19:29;5.22;;;2.60;;
44588;SDS011;30298;52.562;13.414;2023-03-04T09:21:55;3.97;;;2.53;;
44588;SDS011;30298;52.562;13.414;2023-03-04T09:24:21;8.43;;;2.30;;
44588;SDS011;30298;52.562;13.414;2023-03-04T09:26:50;10.10;;;3.55;;
44588;SDS011;30298;52.562;13.414;2023-03-04T09:29:15;9.70;;;2.47;;
44588;SDS011;30298;52.562;13.414;2023-03-04T09:31:40;10.80;;;2.40;;
44588;SDS011;30298;52.562;13.414;2023-03-04T09:34:26;7.18;;;2.58;;
44588;SDS011;30298;52.562;13.414;2023-03-04T09:36:51;3.83;;;2.50;;
44588;SDS011;30298;52.562;13.414;2023-03-04T09:39:16;10.57;;;3.00;;
44588;SDS011;30298;52.562;13.414;2023-03-04T09:41:43;8.50;;;2.63;;
44588;SDS011;30298;52.562;13.414;2023-03-04T09:44:13;17.45;;;2.75;;
44588;SDS011;30298;52.562;13.414;2023-03-04T09:46:39;13.18;;;3.50;;
44588;SDS011;30298;52.562;13.414;2023-03-04T09:49:05;9.77;;;2.45;;
44588;SDS011;30298;52.562;13.414;2023-03-04T09:51:43;9.00;;;2.90;;
44588;SDS011;30298;52.562;13.414;2023-03-04T09:56:42;9.65;;;3.47;;
44588;SDS011;30298;52.562;13.414;2023-03-04T09:59:24;15.13;;;3.03;;
44588;SDS011;30298;52.562;13.414;2023-03-04T10:02:19;6.68;;;2.20;;
44588;SDS011;30298;52.562;13.414;2023-03-04T10:04:47;7.82;;;2.42;;
44588;SDS011;30298;52.562;13.414;2023-03-04T10:07:18;9.30;;;2.53;;
44588;SDS011;30298;52.562;13.414;2023-03-04T10:09:48;12.45;;;2.63;;
44588;SDS011;30298;52.562;13.414;2023-03-04T10:12:16;10.85;;;3.55;;
44588;SDS011;30298;52.562;13.414;2023-03-04T10:17:16;7.03;;;2.43;;
44588;SDS011;30298;52.562;13.414;2023-03-04T10:22:42;9.65;;;2.60;;
44588;SDS011;30298;52.562;13.414;2023-03-04T10:27:43;9.43;;;2.80;;
44588;SDS011;30298;52.562;13.414;2023-03-04T10:30:17;5.78;;;2.60;;
44588;SDS011;30298;52.562;13.414;2023-03-04T10:32:46;10.27;;;2.67;;
44588;SDS011;30298;52.562;13.414;2023-03-04T10:35:12;8.93;;;2.95;;
44588;SDS011;30298;52.562;13.414;2023-03-04T10:37:48;6.97;;;2.80;;
44588;SDS011;30298;52.562;13.414;2023-03-04T10:40:21;10.85;;;2.70;;
44588;SDS011;30298;52.562;13.414;2023-03-04T10:42:47;10.40;;;2.55;;
44588;SDS011;30298;52.562;13.414;2023-03-04T10:47:38;10.43;;;3.42;;
44588;SDS011;30298;52.562;13.414;2023-03-04T10:50:04;8.73;;;3.60;;
44588;SDS011;30298;52.562;13.414;2023-03-04T10:52:39;12.10;;;3.13;;
44588;SDS011;30298;52.562;13.414;2023-03-04T10:55:15;8.20;;;3.35;;
44588;SDS011;30298;52.562;13.414;2023-03-04T10:57:42;16.08;;;3.17;;
44588;SDS011;30298;52.562;13.414;2023-03-04T11:02:43;8.20;;;2.75;;
44588;SDS011;30298;52.562;13.414;2023-03-04T11:07:41;8.97;;;2.53;;
44588;SDS011;30298;52.562;13.414;2023-03-04T11:10:08;12.73;;;2.85;;
44588;SDS011;30298;52.562;13.414;2023-03-04T11:12:34;8.23;;;3.17;;
44588;SDS011;30298;52.562;13.414;2023-03-04T11:14:59;13.33;;;4.10;;
44588;SDS011;30298;52.562;13.414;2023-03-04T11:17:26;17.25;;;4.25;;
44588;SDS011;30298;52.562;13.414;2023-03-04T11:19:54;12.52;;;2.85;;
44588;SDS011;30298;52.562;13.414;2023-03-04T11:22:20;16.77;;;5.18;;
44588;SDS011;30298;52.562;13.414;2023-03-04T11:25:00;11.30;;;3.33;;
44588;SDS011;30298;52.562;13.414;2023-03-04T11:27:33;15.15;;;3.05;;
44588;SDS011;30298;52.562;13.414;2023-03-04T11:32:39;12.68;;;2.95;;
44588;SDS011;30298;52.562;13.414;2023-03-04T11:43:02;10.77;;;2.90;;
44588;SDS011;30298;52.562;13.414;2023-03-04T11:45:33;10.40;;;2.90;;
44588;SDS011;30298;52.562;13.414;2023-03-04T11:56:12;13.90;;;3.45;;
44588;SDS011;30298;52.562;13.414;2023-03-04T11:58:51;13.75;;;3.63;;
44588;SDS011;30298;52.562;13.414;2023-03-04T12:01:25;11.55;;;3.47;;
44588;SDS011;30298;52.562;13.414;2023-03-04T12:04:01;13.90;;;4.15;;
44588;SDS011;30298;52.562;13.414;2023-03-04T12:08:58;10.57;;;3.80;;
44588;SDS011;30298;52.562;13.414;2023-03-04T12:11:28;13.43;;;3.67;;
44588;SDS011;30298;52.562;13.414;2023-03-04T12:14:16;12.02;;;3.58;;
44588;SDS011;30298;52.562;13.414;2023-03-04T12:27:23;12.95;;;3.60;;
44588;SDS011;30298;52.562;13.414;2023-03-04T12:37:45;16.27;;;3.15;;
44588;SDS011;30298;52.562;13.414;2023-03-04T12:45:36;6.05;;;2.47;;
44588;SDS011;30298;52.562;13.414;2023-03-04T12:53:27;9.70;;;3.40;;
44588;SDS011;30298;52.562;13.414;2023-03-04T12:55:54;17.65;;;4.57;;
44588;SDS011;30298;52.562;13.414;2023-03-04T13:00:51;12.55;;;3.00;;
44588;SDS011;30298;52.562;13.414;2023-03-04T13:06:14;8.75;;;2.88;;
44588;SDS011;30298;52.562;13.414;2023-03-04T13:14:04;16.10;;;2.90;;
44588;SDS011;30298;52.562;13.414;2023-03-04T13:18:58;10.23;;;2.78;;
44588;SDS011;30298;52.562;13.414;2023-03-04T13:21:24;10.97;;;2.63;;
44588;SDS011;30298;52.562;13.414;2023-03-04T13:23:51;11.95;;;3.03;;
44588;SDS011;30298;52.562;13.414;2023-03-04T13:26:21;14.25;;;2.90;;
44588;SDS011;30298;52.562;13.414;2023-03-04T13:28:51;14.82;;;3.25;;
44588;SDS011;30298;52.562;13.414;2023-03-04T13:31:18;8.63;;;2.40;;
44588;SDS011;30298;52.562;13.414;2023-03-04T13:33:46;15.02;;;2.90;;
44588;SDS011;30298;52.562;13.414;2023-03-04T13:36:31;12.57;;;4.30;;
44588;SDS011;30298;52.562;13.414;2023-03-04T13:39:21;18.65;;;3.53;;
44588;SDS011;30298;52.562;13.414;2023-03-04T13:41:46;14.27;;;3.13;;
44588;SDS011;30298;52.562;13.414;2023-03-04T13:46:55;10.25;;;3.30;;
44588;SDS011;30298;52.562;13.414;2023-03-04T13:49:21;16.15;;;3.38;;
44588;SDS011;30298;52.562;13.414;2023-03-04T13:51:50;13.07;;;2.70;;
44588;SDS011;30298;52.562;13.414;2023-03-04T13:54:19;15.52;;;4.20;;
44588;SDS011;30298;52.562;13.414;2023-03-04T13:56:46;12.90;;;3.65;;
44588;SDS011;30298;52.562;13.414;2023-03-04T13:59:14;15.50;;;3.35;;
44588;SDS011;30298;52.562;13.414;2023-03-04T14:06:43;14.30;;;3.72;;
44588;SDS011;30298;52.562;13.414;2023-03-04T14:09:28;8.95;;;2.90;;
44588;SDS011;30298;52.562;13.414;2023-03-04T14:12:02;9.38;;;2.90;;
44588;SDS011;30298;52.562;13.414;2023-03-04T14:14:31;11.65;;;3.10;;
44588;SDS011;30298;52.562;13.414;2023-03-04T14:16:59;12.38;;;4.07;;
44588;SDS011;30298;52.562;13.414;2023-03-04T14:19:29;17.92;;;4.28;;
44588;SDS011;30298;52.562;13.414;2023-03-04T14:21:55;9.65;;;3.30;;
44588;SDS011;30298;52.562;13.414;2023-03-04T14:24:21;13.90;;;4.35;;
44588;SDS011;30298;52.562;13.414;2023-03-04T14:26:47;16.08;;;3.95;;
44588;SDS011;30298;52.562;13.414;2023-03-04T14:29:20;12.48;;;3.45;;
44588;SDS011;30298;52.562;13.414;2023-03-04T14:31:45;13.48;;;4.03;;
44588;SDS011;30298;52.562;13.414;2023-03-04T14:34:11;11.27;;;2.70;;
44588;SDS011;30298;52.562;13.414;2023-03-04T14:36:39;16.25;;;3.38;;
44588;SDS011;30298;52.562;13.414;2023-03-04T14:39:11;8.73;;;2.92;;
44588;SDS011;30298;52.562;13.414;2023-03-04T14:41:39;14.32;;;3.70;;
44588;SDS011;30298;52.562;13.414;2023-03-04T14:46:44;20.85;;;3.10;;
44588;SDS011;30298;52.562;13.414;2023-03-04T14:49:12;11.93;;;3.75;;
44588;SDS011;30298;52.562;13.414;2023-03-04T14:54:03;7.03;;;2.70;;
44588;SDS011;30298;52.562;13.414;2023-03-04T14:56:30;11.30;;;2.92;;
44588;SDS011;30298;52.562;13.414;2023-03-04T14:58:56;12.30;;;3.25;;
44588;SDS011;30298;52.562;13.414;2023-03-04T15:04:10;10.38;;;3.05;;
44588;SDS011;30298;52.562;13.414;2023-03-04T15:06:36;12.68;;;3.60;;
44588;SDS011;30298;52.562;13.414;2023-03-04T15:09:19;13.77;;;3.25;;
44588;SDS011;30298;52.562;13.414;2023-03-04T15:11:46;16.25;;;4.07;;
44588;SDS011;30298;52.562;13.414;2023-03-04T15:16:56;22.95;;;3.67;;
44588;SDS011;30298;52.562;13.414;2023-03-04T15:19:28;16.93;;;3.20;;
44588;SDS011;30298;52.562;13.414;2023-03-04T15:22:06;14.00;;;3.95;;
44588;SDS011;30298;52.562;13.414;2023-03-04T15:24:31;15.35;;;3.35;;
44588;SDS011;30298;52.562;13.414;2023-03-04T15:26:57;15.57;;;4.00;;
44588;SDS011;30298;52.562;13.414;2023-03-04T15:29:22;17.93;;;4.07;;
44588;SDS011;30298;52.562;13.414;2023-03-04T15:31:47;14.33;;;3.70;;
44588;SDS011;30298;52.562;13.414;2023-03-04T15:34:13;10.57;;;2.67;;
44588;SDS011;30298;52.562;13.414;2023-03-04T15:36:39;13.77;;;2.90;;
44588;SDS011;30298;52.562;13.414;2023-03-04T15:39:04;13.00;;;4.35;;
44588;SDS011;30298;52.562;13.414;2023-03-04T15:41:30;12.40;;;3.15;;
44588;SDS011;30298;52.562;13.414;2023-03-04T15:43:55;15.00;;;3.60;;
44588;SDS011;30298;52.562;13.414;2023-03-04T15:46:21;19.40;;;3.25;;
44588;SDS011;30298;52.562;13.414;2023-03-04T15:48:47;15.10;;;3.83;;
44588;SDS011;30298;52.562;13.414;2023-03-04T15:51:19;9.80;;;4.05;;
44588;SDS011;30298;52.562;13.414;2023-03-04T15:53:47;15.05;;;4.20;;
44588;SDS011;30298;52.562;13.414;2023-03-04T15:56:14;15.38;;;2.92;;
44588;SDS011;30298;52.562;13.414;2023-03-04T15:58:41;13.82;;;3.50;;
44588;SDS011;30298;52.562;13.414;2023-03-04T16:03:32;13.48;;;3.50;;
44588;SDS011;30298;52.562;13.414;2023-03-04T16:05:57;14.00;;;3.53;;
44588;SDS011;30298;52.562;13.414;2023-03-04T16:08:22;13.40;;;2.90;;
44588;SDS011;30298;52.562;13.414;2023-03-04T16:10:49;17.67;;;3.05;;
44588;SDS011;30298;52.562;13.414;2023-03-04T16:13:16;14.38;;;2.83;;
44588;SDS011;30298;52.562;13.414;2023-03-04T16:15:41;12.98;;;3.38;;
44588;SDS011;30298;52.562;13.414;2023-03-04T16:18:07;18.02;;;3.60;;
44588;SDS011;30298;52.562;13.414;2023-03-04T16:20:33;10.75;;;3.22;;
44588;SDS011;30298;52.562;13.414;2023-03-04T16:22:59;16.43;;;3.57;;
44588;SDS011;30298;52.562;13.414;2023-03-04T16:25:25;12.38;;;3.83;;
44588;SDS011;30298;52.562;13.414;2023-03-04T16:27:51;14.10;;;2.70;;
44588;SDS011;30298;52.562;13.414;2023-03-04T16:30:17;11.85;;;2.72;;